Time;durP1;ratioP1;P1;durP2;ratioP2;P2;SDS_P1;SDS_P2;PMS_P1;PMS_P2;Temp;Humidity;BMP_temperature;BMP_pressure;BME280_temperature;BME280_humidity;BME280_pressure;Samples;Min_cycle;Max_cycle;Signal;HPM_P1;HPM_P2
2022/10/15 00:01:15;;;;;;;69.87;48.08;;;;;;;;;;4436265;32;20018;-65
2022/10/15 00:03:42;;;;;;;78.95;49.53;;;;;;;;;;4422544;32;20092;-64
2022/10/15 00:06:09;;;;;;;72.22;48.50;;;;;;;;;;4423166;32;20055;-65
2022/10/15 00:08:34;;;;;;;70.72;47.22;;;;;;;;;;4437656;32;20423;-64
2022/10/15 00:10:59;;;;;;;;;;;;;;;;;;4428744;32;20089;-65
2022/10/15 00:13:25;;;;;;;74.60;48.50;;;;;;;;;;4421495;32;19970;-64
2022/10/15 00:15:50;;;;;;;68.78;47.53;;;;;;;;;;4433054;32;20454;-64
2022/10/15 00:18:15;;;;;;;69.70;46.45;;;;;;;;;;4437812;32;20022;-64
2022/10/15 00:20:40;;;;;;;71.18;47.17;;;;;;;;;;4435486;32;20057;-64
2022/10/15 00:23:05;;;;;;;80.87;55.60;;;;;;;;;;4436861;32;20030;-64
2022/10/15 00:25:31;;;;;;;71.47;50.08;;;;;;;;;;4437134;32;20152;-63
2022/10/15 00:27:56;;;;;;;76.50;49.78;;;;;;;;;;4410641;32;20021;-64
2022/10/15 00:30:21;;;;;;;73.53;47.38;;;;;;;;;;4421743;32;20018;-63
2022/10/15 00:32:46;;;;;;;;;;;;;;;;;;4421941;32;20045;-64
2022/10/15 00:35:11;;;;;;;73.47;49.35;;;;;;;;;;4421100;32;19957;-65
2022/10/15 00:37:36;;;;;;;;;;;;;;;;;;4421206;32;20588;-64
2022/10/15 00:40:37;;;;;;;76.47;50.00;;;;;;;;;;4421120;27;20008;-76
2022/10/15 03:52:03;;;;;;;;;;;;;;;;;;;;;
2022/10/15 03:57:54;;;;;;;115.90;69.95;;;;;;;;;;4344608;33;20094;-75
2022/10/15 04:06:48;;;;;;;;;;;;;;;;;;;;;
2022/10/15 04:15:20;;;;;;;171.70;91.03;;;;;;;;;;4288368;33;20056;-76
2022/10/15 04:17:46;;;;;;;;;;;;;;;;;;4315194;33;20028;-75
2022/10/15 04:20:11;;;;;;;174.98;91.63;;;;;;;;;;4323645;33;19953;-76
2022/10/15 04:25:30;;;;;;;154.10;87.88;;;;;;;;;;4390475;32;20060;-75
2022/10/15 04:28:17;;;;;;;;;;;;;;;;;;4390769;32;20073;-75
2022/10/15 04:30:57;;;;;;;;;;;;;;;;;;;;;
2022/10/15 04:37:04;;;;;;;158.32;89.75;;;;;;;;;;4328525;33;20040;-75
2022/10/15 04:39:59;;;;;;;138.98;83.43;;;;;;;;;;4329567;33;20067;-75
2022/10/15 04:42:36;;;;;;;141.00;82.62;;;;;;;;;;4340579;33;20433;-75
2022/10/15 04:45:05;;;;;;;150.45;86.95;;;;;;;;;;4343694;33;20035;-75
2022/10/15 04:47:30;;;;;;;133.70;81.43;;;;;;;;;;4350334;32;20401;-75
2022/10/15 04:49:55;;;;;;;;;;;;;;;;;;4383676;32;20027;-75
2022/10/15 04:53:07;;;;;;;;;;;;;;;;;;;;;
2022/10/15 04:58:52;;;;;;;130.32;79.22;;;;;;;;;;4344799;33;20423;-75
2022/10/15 05:07:27;;;;;;;116.40;71.50;;;;;;;;;;4271923;33;20060;-76
2022/10/15 05:10:11;;;;;;;125.80;72.60;;;;;;;;;;4270970;33;20037;-75
2022/10/15 05:12:36;;;;;;;135.80;75.87;;;;;;;;;;4271138;33;20100;-75
2022/10/15 05:15:01;;;;;;;;;;;;;;;;;;4305748;32;20439;-75
2022/10/15 05:23:35;;;;;;;125.25;72.80;;;;;;;;;;4394060;32;20384;-75
2022/10/15 05:26:11;;;;;;;127.35;73.70;;;;;;;;;;4393523;32;20034;-75
2022/10/15 05:29:21;;;;;;;116.00;68.07;;;;;;;;;;4393688;32;20035;-75
2022/10/15 05:31:28;;;;;;;123.30;70.97;;;;;;;;;;4387606;32;20038;-76
2022/10/15 05:33:57;;;;;;;129.98;72.47;;;;;;;;;;4391167;32;20090;-75
2022/10/15 05:36:23;;;;;;;118.85;69.90;;;;;;;;;;4390790;32;20042;-75
2022/10/15 05:38:53;;;;;;;113.18;67.28;;;;;;;;;;4390603;32;20050;-75
2022/10/15 05:41:21;;;;;;;113.80;68.85;;;;;;;;;;4392427;32;20108;-76
2022/10/15 05:43:48;;;;;;;124.53;68.90;;;;;;;;;;4391064;32;20047;-75
2022/10/15 05:46:16;;;;;;;103.18;63.33;;;;;;;;;;4387756;32;20069;-76
2022/10/15 05:58:12;;;;;;;;;;;;;;;;;;;;;
2022/10/15 06:05:51;;;;;;;100.53;59.45;;;;;;;;;;4330450;32;20446;-75
2022/10/15 06:08:17;;;;;;;105.75;61.00;;;;;;;;;;4337644;32;20066;-75
2022/10/15 06:10:42;;;;;;;;;;;;;;;;;;4392830;32;20034;-75
2022/10/15 06:13:08;;;;;;;91.15;50.12;;;;;;;;;;4392651;32;19938;-76
2022/10/15 06:15:33;;;;;;;90.70;54.30;;;;;;;;;;4392150;32;20054;-75
2022/10/15 06:17:58;;;;;;;;;;;;;;;;;;4392532;32;20094;-76
2022/10/15 06:20:24;;;;;;;88.40;48.78;;;;;;;;;;4391428;32;19942;-75
2022/10/15 06:26:22;;;;;;;96.57;50.97;;;;;;;;;;4383145;32;20148;-75
2022/10/15 06:28:51;;;;;;;91.87;50.63;;;;;;;;;;4382243;32;20068;-75
2022/10/15 06:31:16;;;;;;;101.78;54.00;;;;;;;;;;4377097;32;20062;-75
2022/10/15 06:33:41;;;;;;;;;;;;;;;;;;4377436;32;20035;-75
2022/10/15 06:36:08;;;;;;;121.05;56.13;;;;;;;;;;4376933;32;19941;-75
2022/10/15 06:38:33;;;;;;;135.95;61.47;;;;;;;;;;4390996;32;20092;-75
2022/10/15 06:40:59;;;;;;;;;;;;;;;;;;4392103;32;20030;-75
2022/10/15 06:43:24;;;;;;;133.18;59.60;;;;;;;;;;4391679;32;19982;-75
2022/10/15 06:45:57;;;;;;;136.75;59.03;;;;;;;;;;4392296;32;20030;-75
2022/10/15 06:48:22;;;;;;;135.25;62.10;;;;;;;;;;4392017;32;20091;-75
2022/10/15 06:50:48;;;;;;;;;;;;;;;;;;4396429;32;20030;-75
2022/10/15 06:53:22;;;;;;;136.88;57.97;;;;;;;;;;4391538;32;19996;-75
2022/10/15 06:55:53;;;;;;;128.43;58.22;;;;;;;;;;4378284;32;20030;-75
2022/10/15 06:58:18;;;;;;;121.82;59.03;;;;;;;;;;4392510;32;20027;-74
2022/10/15 07:00:49;;;;;;;;;;;;;;;;;;4392398;32;20057;-75
2022/10/15 07:03:52;;;;;;;119.53;61.17;;;;;;;;;;4390896;32;19946;-75
2022/10/15 07:12:28;;;;;;;134.43;64.28;;;;;;;;;;4315685;33;20104;-75
2022/10/15 07:14:53;;;;;;;148.07;67.05;;;;;;;;;;4371453;32;20062;-75
2022/10/15 07:17:18;;;;;;;;;;;;;;;;;;4376973;32;20081;-75
2022/10/15 07:19:46;;;;;;;167.85;69.45;;;;;;;;;;4375850;32;19960;-75
2022/10/15 07:22:15;;;;;;;166.20;65.70;;;;;;;;;;4376259;32;20050;-75
2022/10/15 07:24:40;;;;;;;173.48;66.30;;;;;;;;;;4376234;32;20065;-75
2022/10/15 07:27:05;;;;;;;;;;;;;;;;;;4376516;32;20039;-75
2022/10/15 07:29:31;;;;;;;150.85;61.67;;;;;;;;;;4377722;32;19953;-75
2022/10/15 07:31:57;;;;;;;149.77;64.82;;;;;;;;;;4376060;32;20170;-75
2022/10/15 07:34:24;;;;;;;136.02;61.63;;;;;;;;;;4376011;32;20073;-75
2022/10/15 07:36:59;;;;;;;133.10;60.60;;;;;;;;;;4375799;32;20066;-75
2022/10/15 07:39:24;;;;;;;128.43;57.08;;;;;;;;;;4376055;32;20065;-75
2022/10/15 07:41:49;;;;;;;;;;;;;;;;;;4376356;32;20039;-75
2022/10/15 07:44:14;;;;;;;88.55;47.55;;;;;;;;;;4376055;32;19946;-75
2022/10/15 07:46:40;;;;;;;87.28;44.40;;;;;;;;;;4375622;32;20089;-75
2022/10/15 07:49:05;;;;;;;78.25;42.62;;;;;;;;;;4376314;32;20035;-75
2022/10/15 07:51:30;;;;;;;75.57;43.78;;;;;;;;;;4362397;32;20074;-75
2022/10/15 07:54:01;;;;;;;68.57;38.55;;;;;;;;;;4362033;32;20035;-75
2022/10/15 07:56:27;;;;;;;71.70;39.47;;;;;;;;;;4375711;32;20077;-74
2022/10/15 07:58:52;;;;;;;60.70;36.40;;;;;;;;;;4375729;32;20132;-75
2022/10/15 08:01:30;;;;;;;54.97;34.70;;;;;;;;;;4375447;32;20108;-75
2022/10/15 08:03:55;;;;;;;56.00;35.15;;;;;;;;;;4375948;32;20019;-75
2022/10/15 08:06:21;;;;;;;52.70;33.90;;;;;;;;;;4389750;32;20038;-74
2022/10/15 08:09:30;;;;;;;48.40;32.45;;;;;;;;;;4391103;32;20069;-75
2022/10/15 08:11:50;;;;;;;51.58;31.45;;;;;;;;;;4389170;32;20060;-75
2022/10/15 08:14:36;;;;;;;48.05;30.73;;;;;;;;;;4390479;32;20034;-75
2022/10/15 08:21:05;;;;;;;48.00;30.75;;;;;;;;;;4390592;32;20049;-75
2022/10/15 08:23:05;;;;;;;41.42;29.23;;;;;;;;;;4390880;32;20037;-74
2022/10/15 08:25:31;;;;;;;44.30;29.05;;;;;;;;;;4391530;32;20094;-74
2022/10/15 08:27:57;;;;;;;41.33;27.67;;;;;;;;;;4390932;32;20364;-74
2022/10/15 08:30:25;;;;;;;46.00;27.45;;;;;;;;;;4389967;32;20060;-74
2022/10/15 08:32:51;;;;;;;36.90;25.95;;;;;;;;;;4390841;32;20060;-74
2022/10/15 08:35:16;;;;;;;35.83;25.75;;;;;;;;;;4390938;32;20026;-75
2022/10/15 08:41:24;;;;;;;34.65;24.05;;;;;;;;;;4343195;33;20475;-74
2022/10/15 08:43:50;;;;;;;32.88;22.92;;;;;;;;;;4348768;32;20061;-75
2022/10/15 08:46:24;;;;;;;30.52;22.00;;;;;;;;;;4381808;32;20035;-74
2022/10/15 08:51:43;;;;;;;28.50;21.05;;;;;;;;;;4390541;32;20042;-74
2022/10/15 08:54:12;;;;;;;28.55;20.80;;;;;;;;;;4390412;32;20309;-74
2022/10/15 08:56:45;;;;;;;28.95;21.42;;;;;;;;;;4390088;32;20057;-74
2022/10/15 08:59:16;;;;;;;25.65;19.50;;;;;;;;;;4376904;32;20031;-74
2022/10/15 09:01:51;;;;;;;27.00;20.33;;;;;;;;;;4390315;32;20484;-74
2022/10/15 09:04:42;;;;;;;24.12;18.83;;;;;;;;;;4389538;32;20101;-74
2022/10/15 09:07:11;;;;;;;24.92;19.62;;;;;;;;;;4390143;32;20053;-73
2022/10/15 09:09:48;;;;;;;26.05;20.20;;;;;;;;;;4389322;32;20031;-74
2022/10/15 09:12:13;;;;;;;;;;;;;;;;;;4376578;32;20096;-74
2022/10/15 09:14:40;;;;;;;27.80;20.20;;;;;;;;;;4375905;32;20335;-74
2022/10/15 09:17:22;;;;;;;33.42;22.25;;;;;;;;;;4389531;32;20031;-74
2022/10/15 09:19:52;;;;;;;31.87;21.50;;;;;;;;;;4390269;32;20076;-74
2022/10/15 09:22:22;;;;;;;31.85;22.55;;;;;;;;;;4390540;32;20091;-75
2022/10/15 09:24:58;;;;;;;32.50;22.77;;;;;;;;;;4390059;32;20105;-76
2022/10/15 09:27:39;;;;;;;37.85;22.80;;;;;;;;;;4376493;32;20058;-76
2022/10/15 09:33:32;;;;;;;44.90;27.23;;;;;;;;;;4328940;33;20157;-76
2022/10/15 09:36:28;;;;;;;40.45;25.27;;;;;;;;;;4329370;33;20058;-76
2022/10/15 09:42:57;;;;;;;47.05;27.55;;;;;;;;;;4343435;33;20051;-76
2022/10/15 09:48:32;;;;;;;44.80;26.80;;;;;;;;;;4313137;33;20074;-76
2022/10/15 09:51:45;;;;;;;;;;;;;;;;;;;;;
2022/10/15 09:54:24;;;;;;;46.15;27.45;;;;;;;;;;4373391;32;20054;-75
2022/10/15 09:56:57;;;;;;;43.58;26.55;;;;;;;;;;4374744;32;20026;-75
2022/10/15 09:59:35;;;;;;;51.80;27.52;;;;;;;;;;4375049;32;20028;-75
2022/10/15 10:15:07;;;;;;;;;;;;;;;;;;;;;
2022/10/15 10:18:09;;;;;;;44.25;26.05;;;;;;;;;;4287553;33;20056;-74
2022/10/15 10:23:59;;;;;;;49.00;27.83;;;;;;;;;;4287554;33;20096;-74
2022/10/15 10:26:25;;;;;;;33.95;23.20;;;;;;;;;;4313833;33;20070;-76
2022/10/15 10:29:17;;;;;;;43.83;26.00;;;;;;;;;;4319572;33;20087;-75
2022/10/15 10:41:19;;;;;;;;;;;;;;;;;;;;;
2022/10/15 10:56:51;;;;;;;;;;;;;;;;;;;;;
2022/10/15 11:14:53;;;;;;;35.38;21.58;;;;;;;;;;4258336;33;20376;-75
2022/10/15 11:20:53;;;;;;;33.97;20.90;;;;;;;;;;4256783;33;20077;-75
2022/10/15 11:30:02;;;;;;;32.80;22.27;;;;;;;;;;4243739;33;20495;-75
2022/10/15 11:49:10;;;;;;;34.15;22.45;;;;;;;;;;4228887;34;20062;-76
2022/10/15 11:52:08;;;;;;;26.27;21.08;;;;;;;;;;4244386;33;20318;-76
2022/10/15 11:57:53;;;;;;;24.58;20.60;;;;;;;;;;4257886;33;20085;-76
2022/10/15 12:00:24;;;;;;;28.25;21.58;;;;;;;;;;4267026;33;20038;-76
2022/10/15 12:02:52;;;;;;;23.90;19.45;;;;;;;;;;4309822;32;20073;-76
2022/10/15 12:09:18;;;;;;;23.87;18.55;;;;;;;;;;4329489;33;20449;-76
2022/10/15 12:18:29;;;;;;;17.83;15.88;;;;;;;;;;4346250;32;20035;-75
2022/10/15 12:21:03;;;;;;;24.98;16.90;;;;;;;;;;4390936;32;20034;-76
2022/10/15 12:23:54;;;;;;;22.37;17.62;;;;;;;;;;4377806;32;20027;-75
2022/10/15 12:29:25;;;;;;;20.20;17.30;;;;;;;;;;4390419;32;20379;-75
2022/10/15 12:32:17;;;;;;;24.42;20.15;;;;;;;;;;4391492;32;20073;-77
2022/10/15 12:35:13;;;;;;;18.10;16.30;;;;;;;;;;4343716;33;20027;-77
2022/10/15 12:38:09;;;;;;;63.07;37.67;;;;;;;;;;4374315;32;20104;-77
2022/10/15 12:41:28;;;;;;;38.65;26.37;;;;;;;;;;4389990;32;20341;-77
2022/10/15 12:57:23;;;;;;;;;;;;;;;;;;;;;
2022/10/15 13:00:52;;;;;;;10.38;9.25;;;;;;;;;;4221173;33;20479;-77
2022/10/15 13:15:55;;;;;;;8.80;7.45;;;;;;;;;;4258877;33;20045;-76
2022/10/15 13:18:57;;;;;;;9.25;6.87;;;;;;;;;;4300349;33;20099;-76
2022/10/15 13:21:43;;;;;;;11.95;6.05;;;;;;;;;;4311859;33;20108;-76
2022/10/15 13:24:35;;;;;;;8.35;6.10;;;;;;;;;;4313412;33;20028;-76
2022/10/15 13:27:21;;;;;;;7.43;5.72;;;;;;;;;;4338351;32;20027;-76
2022/10/15 13:30:05;;;;;;;8.60;4.65;;;;;;;;;;4374505;32;20024;-76
2022/10/15 13:32:37;;;;;;;7.97;4.45;;;;;;;;;;4374936;32;20365;-75
2022/10/15 13:35:09;;;;;;;4.72;3.42;;;;;;;;;;4376046;32;20022;-75
2022/10/15 13:37:39;;;;;;;3.45;2.85;;;;;;;;;;4377892;32;20081;-75
2022/10/15 13:40:04;;;;;;;4.32;2.70;;;;;;;;;;4376396;32;20108;-75
2022/10/15 13:42:55;;;;;;;;;;;;;;;;;;;;;
2022/10/15 13:45:44;;;;;;;2.90;1.90;;;;;;;;;;4378213;32;20034;-74
2022/10/15 13:48:10;;;;;;;6.12;1.83;;;;;;;;;;4369235;32;20065;-74
2022/10/15 13:50:48;;;;;;;2.45;1.27;;;;;;;;;;4377074;32;20051;-75
2022/10/15 13:53:20;;;;;;;4.00;1.67;;;;;;;;;;4378265;32;20058;-75
2022/10/15 13:55:49;;;;;;;2.25;1.15;;;;;;;;;;4377836;32;20022;-75
2022/10/15 13:58:17;;;;;;;4.80;1.35;;;;;;;;;;4377515;32;20043;-75
2022/10/15 14:00:48;;;;;;;3.70;1.20;;;;;;;;;;4383047;32;20057;-74
2022/10/15 14:03:16;;;;;;;2.83;1.30;;;;;;;;;;4392671;32;20084;-74
2022/10/15 14:05:42;;;;;;;4.72;1.52;;;;;;;;;;4392306;32;20065;-74
2022/10/15 14:08:28;;;;;;;5.97;1.40;;;;;;;;;;4392645;32;20310;-74
2022/10/15 14:14:25;;;;;;;5.82;1.80;;;;;;;;;;4390117;32;20373;-74
2022/10/15 14:16:50;;;;;;;7.00;1.92;;;;;;;;;;4393041;32;20056;-75
2022/10/15 14:19:18;;;;;;;3.92;1.30;;;;;;;;;;4390367;32;20050;-74
2022/10/15 14:21:47;;;;;;;6.75;2.00;;;;;;;;;;4390114;32;20062;-74
2022/10/15 14:24:20;;;;;;;4.70;1.62;;;;;;;;;;4389485;32;20046;-74
2022/10/15 14:26:46;;;;;;;4.35;1.40;;;;;;;;;;4388801;32;20078;-74
2022/10/15 14:29:30;;;;;;;2.92;1.35;;;;;;;;;;4389624;32;20089;-74
2022/10/15 14:31:56;;;;;;;3.72;1.33;;;;;;;;;;4390465;32;20039;-75
2022/10/15 14:34:40;;;;;;;6.25;1.73;;;;;;;;;;4380273;32;20350;-74
2022/10/15 14:37:27;;;;;;;10.48;1.83;;;;;;;;;;4379167;32;20100;-74
2022/10/15 14:40:02;;;;;;;4.03;1.50;;;;;;;;;;4392325;32;20030;-75
2022/10/15 14:42:30;;;;;;;6.30;1.40;;;;;;;;;;4378031;32;20084;-75
2022/10/15 14:44:55;;;;;;;5.10;1.40;;;;;;;;;;4391546;32;20042;-74
2022/10/15 14:47:24;;;;;;;3.45;1.55;;;;;;;;;;4391181;32;20466;-74
2022/10/15 14:49:50;;;;;;;6.03;1.90;;;;;;;;;;4378303;32;20454;-74
2022/10/15 14:52:19;;;;;;;4.70;1.77;;;;;;;;;;4376822;32;20372;-74
2022/10/15 14:55:04;;;;;;;6.37;1.77;;;;;;;;;;4391905;32;20066;-74
2022/10/15 14:57:33;;;;;;;8.32;1.62;;;;;;;;;;4390464;32;20035;-74
2022/10/15 15:00:08;;;;;;;4.05;1.50;;;;;;;;;;4386677;32;20057;-74
2022/10/15 15:02:38;;;;;;;6.43;1.77;;;;;;;;;;4385193;32;20530;-74
2022/10/15 15:05:12;;;;;;;3.87;1.33;;;;;;;;;;4391247;32;20105;-74
2022/10/15 15:10:41;;;;;;;5.50;2.03;;;;;;;;;;4391905;32;20049;-74
2022/10/15 15:13:09;;;;;;;5.78;1.60;;;;;;;;;;4386886;32;20133;-74
2022/10/15 15:16:03;;;;;;;7.10;1.42;;;;;;;;;;4368583;32;20090;-74
2022/10/15 15:18:32;;;;;;;6.15;1.98;;;;;;;;;;4361005;32;20365;-74
2022/10/15 15:20:59;;;;;;;4.30;1.15;;;;;;;;;;4373073;32;20093;-74
2022/10/15 15:23:26;;;;;;;3.83;1.55;;;;;;;;;;4375984;32;20120;-74
2022/10/15 15:25:51;;;;;;;5.70;1.60;;;;;;;;;;4376338;32;20078;-74
2022/10/15 15:28:31;;;;;;;9.27;1.92;;;;;;;;;;4376025;32;20373;-75
2022/10/15 15:30:57;;;;;;;10.65;2.20;;;;;;;;;;4361304;33;20019;-74
2022/10/15 15:33:23;;;;;;;7.62;1.73;;;;;;;;;;4365779;32;20130;-74
2022/10/15 15:35:53;;;;;;;6.35;1.45;;;;;;;;;;4376363;32;20027;-74
2022/10/15 15:38:23;;;;;;;8.13;1.80;;;;;;;;;;4376187;32;20339;-74
2022/10/15 15:40:49;;;;;;;8.55;2.05;;;;;;;;;;4362306;32;20027;-75
2022/10/15 15:43:17;;;;;;;11.75;2.22;;;;;;;;;;4375821;32;20449;-74
2022/10/15 15:45:43;;;;;;;3.58;1.60;;;;;;;;;;4376963;32;20156;-75
2022/10/15 15:48:09;;;;;;;5.15;1.58;;;;;;;;;;4391036;32;20392;-74
2022/10/15 15:50:43;;;;;;;8.95;1.65;;;;;;;;;;4377317;32;20035;-74
2022/10/15 15:53:20;;;;;;;6.30;1.75;;;;;;;;;;4391284;32;20368;-75
2022/10/15 15:55:56;;;;;;;3.20;1.40;;;;;;;;;;4389762;32;20027;-75
2022/10/15 15:58:22;;;;;;;4.10;1.42;;;;;;;;;;4390740;32;20340;-74
2022/10/15 16:01:02;;;;;;;2.92;1.50;;;;;;;;;;4391232;32;20027;-74
2022/10/15 16:03:27;;;;;;;3.80;1.70;;;;;;;;;;4376218;32;20358;-74
2022/10/15 16:05:53;;;;;;;4.72;1.77;;;;;;;;;;4375767;32;20022;-74
2022/10/15 16:08:18;;;;;;;3.17;1.70;;;;;;;;;;4370597;32;20049;-74
2022/10/15 16:10:49;;;;;;;6.43;1.67;;;;;;;;;;4364337;32;20067;-74
2022/10/15 16:13:17;;;;;;;6.72;1.55;;;;;;;;;;4374632;32;20084;-74
2022/10/15 16:15:45;;;;;;;5.45;1.77;;;;;;;;;;4390362;32;20027;-74
2022/10/15 16:18:11;;;;;;;8.30;2.10;;;;;;;;;;4391347;32;20019;-74
2022/10/15 16:20:38;;;;;;;5.82;1.80;;;;;;;;;;4397242;32;20446;-74
2022/10/15 16:23:04;;;;;;;8.15;1.65;;;;;;;;;;4390801;32;20019;-74
2022/10/15 16:25:29;;;;;;;6.82;2.15;;;;;;;;;;4390409;32;20038;-75
2022/10/15 16:28:00;;;;;;;7.43;2.30;;;;;;;;;;4390233;32;20022;-74
2022/10/15 16:30:26;;;;;;;10.02;2.15;;;;;;;;;;4390740;32;20114;-75
2022/10/15 16:32:51;;;;;;;7.28;2.28;;;;;;;;;;4389554;32;20450;-74
2022/10/15 16:35:19;;;;;;;11.15;2.25;;;;;;;;;;4390368;32;20405;-75
2022/10/15 16:37:44;;;;;;;8.80;2.67;;;;;;;;;;4390270;32;20096;-74
2022/10/15 16:40:10;;;;;;;9.25;2.58;;;;;;;;;;4390352;32;20332;-75
2022/10/15 16:42:35;;;;;;;10.07;2.95;;;;;;;;;;4375305;32;20015;-74
2022/10/15 16:45:01;;;;;;;7.22;2.33;;;;;;;;;;4383659;32;20022;-75
2022/10/15 16:47:29;;;;;;;6.18;1.92;;;;;;;;;;4389924;32;20434;-75
2022/10/15 16:49:57;;;;;;;9.80;2.33;;;;;;;;;;4390820;32;20066;-75
2022/10/15 16:52:23;;;;;;;8.68;1.98;;;;;;;;;;4401149;32;20034;-75
2022/10/15 16:54:48;;;;;;;7.85;1.80;;;;;;;;;;4405176;32;20079;-75
2022/10/15 16:57:13;;;;;;;9.40;2.17;;;;;;;;;;4400386;32;20053;-75
2022/10/15 16:59:39;;;;;;;15.77;2.87;;;;;;;;;;4390397;32;20121;-75
2022/10/15 17:02:04;;;;;;;11.20;2.65;;;;;;;;;;4390264;32;20336;-75
2022/10/15 17:04:29;;;;;;;9.15;2.58;;;;;;;;;;4376398;32;20057;-75
2022/10/15 17:06:57;;;;;;;13.62;3.25;;;;;;;;;;4375332;32;20065;-76
2022/10/15 17:09:25;;;;;;;10.25;2.10;;;;;;;;;;4378305;32;20028;-76
2022/10/15 17:11:51;;;;;;;10.27;2.75;;;;;;;;;;4379872;32;20043;-76
2022/10/15 17:14:16;;;;;;;9.82;2.50;;;;;;;;;;4394607;32;20072;-75
2022/10/15 17:16:49;;;;;;;9.23;3.67;;;;;;;;;;4395246;32;20022;-75
2022/10/15 17:19:34;;;;;;;10.77;3.08;;;;;;;;;;4394872;32;20085;-75
2022/10/15 17:21:59;;;;;;;8.93;2.80;;;;;;;;;;4394673;32;20034;-75
2022/10/15 17:24:25;;;;;;;13.62;3.00;;;;;;;;;;4394817;32;20076;-75
2022/10/15 17:26:53;;;;;;;14.40;3.28;;;;;;;;;;4395066;32;20104;-75
2022/10/15 17:29:29;;;;;;;;;;;;;;;;;;;;;
2022/10/15 17:31:58;;;;;;;8.95;2.62;;;;;;;;;;4392139;32;20038;-76
2022/10/15 17:34:24;;;;;;;9.07;2.67;;;;;;;;;;4380006;32;20084;-75
2022/10/15 17:36:59;;;;;;;10.90;3.10;;;;;;;;;;4392253;32;20076;-75
2022/10/15 17:39:24;;;;;;;12.70;2.95;;;;;;;;;;4395702;32;20066;-75
2022/10/15 17:41:50;;;;;;;12.15;4.32;;;;;;;;;;4394462;32;20018;-75
2022/10/15 17:44:19;;;;;;;9.40;2.67;;;;;;;;;;4395277;32;20331;-75
2022/10/15 17:46:44;;;;;;;16.62;4.87;;;;;;;;;;4385800;32;20058;-75
2022/10/15 17:49:17;;;;;;;13.55;2.95;;;;;;;;;;4384140;32;20049;-75
2022/10/15 17:51:43;;;;;;;10.57;3.85;;;;;;;;;;4394268;32;20022;-75
2022/10/15 17:54:24;;;;;;;;;;;;;;;;;;;;;
2022/10/15 18:00:29;;;;;;;17.62;2.85;;;;;;;;;;4394827;32;20063;-75
2022/10/15 18:02:55;;;;;;;11.23;2.78;;;;;;;;;;4347370;33;20097;-75
2022/10/15 18:05:20;;;;;;;13.85;3.83;;;;;;;;;;4384078;32;20018;-75
2022/10/15 18:08:09;;;;;;;;;;;;;;;;;;;;;
2022/10/15 18:10:36;;;;;;;18.65;3.00;;;;;;;;;;4389742;32;20093;-75
2022/10/15 18:13:04;;;;;;;13.05;2.92;;;;;;;;;;4379551;32;20366;-75
2022/10/15 18:15:30;;;;;;;9.73;2.45;;;;;;;;;;4382060;32;20046;-75
2022/10/15 18:17:55;;;;;;;19.58;3.42;;;;;;;;;;4380289;32;20019;-75
2022/10/15 18:20:22;;;;;;;18.20;3.47;;;;;;;;;;4393572;32;20084;-74
2022/10/15 18:22:48;;;;;;;12.23;3.08;;;;;;;;;;4392523;32;20095;-75
2022/10/15 18:25:14;;;;;;;17.65;3.03;;;;;;;;;;4392271;32;20534;-75
2022/10/15 18:27:39;;;;;;;9.70;2.85;;;;;;;;;;4392298;32;20038;-75
2022/10/15 18:30:05;;;;;;;15.52;3.30;;;;;;;;;;4392172;32;20053;-75
2022/10/15 18:32:30;;;;;;;15.05;3.42;;;;;;;;;;4376926;32;20065;-75
2022/10/15 18:34:56;;;;;;;9.75;3.17;;;;;;;;;;4384994;32;20027;-75
2022/10/15 18:37:21;;;;;;;11.93;2.87;;;;;;;;;;4392170;32;20084;-75
2022/10/15 18:39:46;;;;;;;11.80;3.15;;;;;;;;;;4390200;32;20022;-75
2022/10/15 18:42:11;;;;;;;12.52;3.10;;;;;;;;;;4388431;32;20164;-75
2022/10/15 18:44:45;;;;;;;14.23;3.05;;;;;;;;;;4391660;32;20034;-74
2022/10/15 18:47:11;;;;;;;7.47;2.70;;;;;;;;;;4392811;32;20018;-75
2022/10/15 18:49:36;;;;;;;9.30;4.70;;;;;;;;;;4392486;32;20050;-75
2022/10/15 18:52:04;;;;;;;10.55;2.78;;;;;;;;;;4392169;32;20035;-74
2022/10/15 18:54:35;;;;;;;15.05;3.90;;;;;;;;;;4391552;32;20026;-74
2022/10/15 18:57:03;;;;;;;11.88;2.95;;;;;;;;;;4391844;32;20101;-75
2022/10/15 18:59:31;;;;;;;14.60;2.60;;;;;;;;;;4383673;32;20047;-75
2022/10/15 19:02:20;;;;;;;11.68;2.90;;;;;;;;;;4388171;32;20101;-75
2022/10/15 19:04:46;;;;;;;9.57;2.47;;;;;;;;;;4383761;32;20030;-74
2022/10/15 19:07:11;;;;;;;6.75;2.47;;;;;;;;;;4391816;32;20050;-74
2022/10/15 19:09:36;;;;;;;8.73;2.60;;;;;;;;;;4391472;32;20031;-74
2022/10/15 19:12:03;;;;;;;10.57;1.83;;;;;;;;;;4391742;32;20018;-73
2022/10/15 19:14:29;;;;;;;15.05;2.60;;;;;;;;;;4390815;32;20046;-73
2022/10/15 19:16:55;;;;;;;8.77;2.20;;;;;;;;;;4391560;32;20118;-73
2022/10/15 19:19:21;;;;;;;9.70;2.00;;;;;;;;;;4380878;32;20447;-73
2022/10/15 19:21:47;;;;;;;8.15;1.98;;;;;;;;;;4377158;32;20436;-73
2022/10/15 19:24:13;;;;;;;7.25;1.73;;;;;;;;;;4381735;32;20026;-74
2022/10/15 19:26:39;;;;;;;8.52;2.35;;;;;;;;;;4389780;32;20078;-74
2022/10/15 19:29:04;;;;;;;10.32;2.25;;;;;;;;;;4384603;32;20095;-75
2022/10/15 19:31:31;;;;;;;7.40;2.20;;;;;;;;;;4382976;32;20023;-74
2022/10/15 19:34:00;;;;;;;8.90;2.25;;;;;;;;;;4373825;32;20129;-74
2022/10/15 19:36:39;;;;;;;6.07;1.98;;;;;;;;;;4382681;32;20439;-73
2022/10/15 19:39:19;;;;;;;8.48;1.92;;;;;;;;;;4374184;32;20103;-74
2022/10/15 19:41:54;;;;;;;7.05;2.10;;;;;;;;;;4382466;32;20123;-74
2022/10/15 19:44:23;;;;;;;6.03;1.98;;;;;;;;;;4383249;32;20022;-74
2022/10/15 19:46:49;;;;;;;10.05;2.47;;;;;;;;;;4383889;32;20019;-74
2022/10/15 19:49:24;;;;;;;12.30;2.35;;;;;;;;;;4381728;32;20085;-74
2022/10/15 19:52:02;;;;;;;;;;;;;;;;;;;;;
2022/10/15 19:54:28;;;;;;;9.45;2.22;;;;;;;;;;4383423;32;20076;-74
2022/10/15 19:56:53;;;;;;;14.38;2.80;;;;;;;;;;4382319;32;20071;-74
2022/10/15 19:59:24;;;;;;;13.73;2.80;;;;;;;;;;4380394;32;20084;-75
2022/10/15 20:01:49;;;;;;;10.45;3.20;;;;;;;;;;4384531;32;20079;-74
2022/10/15 20:04:21;;;;;;;10.48;3.25;;;;;;;;;;4384339;32;20038;-74
2022/10/15 20:07:10;;;;;;;9.82;2.90;;;;;;;;;;4383041;32;20080;-74
2022/10/15 20:09:45;;;;;;;12.13;4.05;;;;;;;;;;4382412;32;20143;-73
2022/10/15 20:12:19;;;;;;;13.98;5.70;;;;;;;;;;4383942;32;20034;-74
2022/10/15 20:15:11;;;;;;;11.00;3.53;;;;;;;;;;4382276;32;20069;-74
2022/10/15 20:17:50;;;;;;;;;;;;;;;;;;;;;
2022/10/15 20:20:36;;;;;;;8.73;3.05;;;;;;;;;;4379412;32;20383;-74
2022/10/15 20:26:18;;;;;;;5.25;2.03;;;;;;;;;;4372851;32;20066;-73
2022/10/15 20:28:49;;;;;;;5.82;1.95;;;;;;;;;;4373378;32;20094;-73
2022/10/15 20:31:17;;;;;;;7.50;2.20;;;;;;;;;;4381590;32;20038;-74
2022/10/15 20:33:43;;;;;;;9.15;2.35;;;;;;;;;;4381650;32;20023;-73
2022/10/15 20:36:10;;;;;;;4.57;1.85;;;;;;;;;;4383197;32;20023;-73
2022/10/15 20:38:36;;;;;;;4.75;2.10;;;;;;;;;;4383614;32;20087;-73
2022/10/15 20:41:14;;;;;;;9.32;2.12;;;;;;;;;;4378989;32;20045;-75
2022/10/15 20:43:40;;;;;;;10.27;2.15;;;;;;;;;;4379683;32;20035;-73
2022/10/15 20:46:08;;;;;;;12.13;2.42;;;;;;;;;;4383723;32;20105;-73
2022/10/15 20:48:41;;;;;;;7.00;1.80;;;;;;;;;;4382538;32;20380;-73
2022/10/15 20:51:08;;;;;;;12.70;1.92;;;;;;;;;;4383273;32;20076;-75
2022/10/15 20:53:34;;;;;;;9.82;2.17;;;;;;;;;;4380980;32;20095;-74
2022/10/15 20:56:02;;;;;;;9.73;2.50;;;;;;;;;;4379257;32;20027;-73
2022/10/15 20:58:31;;;;;;;9.48;2.12;;;;;;;;;;4374089;32;20459;-74
2022/10/15 21:00:59;;;;;;;7.78;2.03;;;;;;;;;;4374044;32;20047;-73
2022/10/15 21:03:25;;;;;;;7.55;2.50;;;;;;;;;;4374994;32;20062;-73
2022/10/15 21:09:33;;;;;;;14.57;2.17;;;;;;;;;;4375033;32;20100;-74
2022/10/15 21:11:43;;;;;;;9.20;1.92;;;;;;;;;;4377163;32;20072;-73
2022/10/15 21:14:12;;;;;;;6.35;2.22;;;;;;;;;;4389689;32;20425;-73
2022/10/15 21:16:37;;;;;;;10.82;3.42;;;;;;;;;;4390063;32;20090;-73
2022/10/15 21:19:05;;;;;;;7.62;2.08;;;;;;;;;;4376503;32;20083;-74
2022/10/15 21:21:40;;;;;;;6.97;1.95;;;;;;;;;;4389694;32;20022;-74
2022/10/15 21:24:05;;;;;;;5.28;1.65;;;;;;;;;;4390221;32;20023;-74
2022/10/15 21:26:42;;;;;;;6.80;2.20;;;;;;;;;;4388908;32;20049;-74
2022/10/15 21:29:16;;;;;;;7.30;1.85;;;;;;;;;;4389453;32;20019;-73
2022/10/15 21:31:47;;;;;;;7.75;1.75;;;;;;;;;;4390751;32;20023;-73
2022/10/15 21:34:26;;;;;;;6.53;1.95;;;;;;;;;;4389651;32;20023;-74
2022/10/15 21:36:54;;;;;;;8.52;1.70;;;;;;;;;;4389862;32;20031;-75
2022/10/15 21:39:22;;;;;;;10.55;2.40;;;;;;;;;;4388950;32;20026;-74
2022/10/15 21:41:47;;;;;;;5.87;1.70;;;;;;;;;;4390275;32;20408;-75
2022/10/15 21:44:12;;;;;;;5.18;1.98;;;;;;;;;;4393168;32;20023;-74
2022/10/15 21:47:04;;;;;;;6.68;1.73;;;;;;;;;;4390184;32;20061;-74
2022/10/15 21:49:32;;;;;;;7.47;1.55;;;;;;;;;;4390123;32;20018;-74
2022/10/15 21:52:00;;;;;;;8.05;1.95;;;;;;;;;;4389540;32;20022;-74
2022/10/15 21:57:33;;;;;;;6.60;1.62;;;;;;;;;;4330754;33;20070;-74
2022/10/15 22:00:00;;;;;;;6.93;1.58;;;;;;;;;;4391856;32;20409;-74
2022/10/15 22:02:26;;;;;;;7.15;1.83;;;;;;;;;;4392098;32;20114;-74
2022/10/15 22:04:51;;;;;;;6.30;1.73;;;;;;;;;;4377774;32;20069;-74
2022/10/15 22:07:24;;;;;;;4.12;1.40;;;;;;;;;;4377504;32;20102;-74
2022/10/15 22:09:49;;;;;;;6.22;1.65;;;;;;;;;;4377434;32;20081;-74